Time;durP1;ratioP1;P1;durP2;ratioP2;P2;SDS_P1;SDS_P2;PMS_P1;PMS_P2;Temp;Humidity;BMP_temperature;BMP_pressure;BME280_temperature;BME280_humidity;BME280_pressure;Samples;Min_cycle;Max_cycle;Signal;HPM_P1;HPM_P2
2022/11/15 00:02:00;;;;;;;2.60;2.60;;;17.90;73.90;;;;;;5059364;28;43459;-74
2022/11/15 00:04:46;;;;;;;2.50;2.50;;;18.10;73.50;;;;;;5053466;28;43435;-74
2022/11/15 00:07:32;;;;;;;2.53;2.53;;;18.20;72.90;;;;;;5057395;28;43605;-75
2022/11/15 00:10:40;;;;;;;2.53;2.53;;;18.30;72.40;;;;;;5057591;28;43340;-73
2022/11/15 00:13:27;;;;;;;2.40;2.40;;;18.30;73.00;;;;;;5057451;28;43390;-72
2022/11/15 00:16:13;;;;;;;2.50;2.50;;;18.30;72.40;;;;;;5057386;28;43364;-73
2022/11/15 00:18:59;;;;;;;2.43;2.43;;;18.20;72.50;;;;;;5054711;28;43755;-74
2022/11/15 00:21:46;;;;;;;2.80;2.80;;;18.10;72.70;;;;;;5058640;28;43359;-74
2022/11/15 00:24:32;;;;;;;2.43;2.43;;;18.00;73.20;;;;;;5058892;28;43427;-74
2022/11/15 00:27:20;;;;;;;2.20;2.20;;;18.00;73.30;;;;;;5058072;28;43349;-73
2022/11/15 00:30:07;;;;;;;2.80;2.70;;;18.00;73.30;;;;;;5054600;28;43601;-74
2022/11/15 00:32:53;;;;;;;2.50;2.50;;;17.90;73.20;;;;;;5053421;28;43436;-73
2022/11/15 00:35:40;;;;;;;2.40;2.40;;;17.90;73.30;;;;;;5054122;28;43365;-73
2022/11/15 00:38:26;;;;;;;2.47;2.47;;;17.90;73.50;;;;;;5054058;28;43491;-73
2022/11/15 00:41:12;;;;;;;2.40;2.40;;;17.90;74.00;;;;;;5053088;28;43648;-74
2022/11/15 00:44:00;;;;;;;2.40;2.30;;;17.90;73.70;;;;;;5053504;28;43372;-73
2022/11/15 00:46:46;;;;;;;2.60;2.50;;;17.80;73.50;;;;;;5049803;28;43364;-73
2022/11/15 00:49:33;;;;;;;2.37;2.37;;;17.80;73.50;;;;;;5056779;28;43965;-74
2022/11/15 00:52:19;;;;;;;2.20;2.20;;;17.80;73.60;;;;;;5051317;28;43792;-72
2022/11/15 00:55:06;;;;;;;2.53;2.53;;;17.80;74.10;;;;;;5053500;28;44146;-74
2022/11/15 00:57:52;;;;;;;2.63;2.53;;;17.90;74.10;;;;;;5055862;28;43396;-72
2022/11/15 01:00:40;;;;;;;2.50;2.50;;;18.00;73.70;;;;;;5048016;28;43341;-74
2022/11/15 01:03:26;;;;;;;2.30;2.30;;;18.20;73.20;;;;;;5053066;28;43485;-74
2022/11/15 01:06:14;;;;;;;2.20;2.20;;;18.30;72.70;;;;;;5053340;28;43380;-74
2022/11/15 01:09:00;;;;;;;2.37;2.37;;;18.30;72.40;;;;;;5050188;28;43450;-73
2022/11/15 01:11:46;;;;;;;2.30;2.30;;;18.30;72.40;;;;;;5055400;28;43404;-74
2022/11/15 01:14:33;;;;;;;2.60;2.50;;;18.20;72.50;;;;;;5047760;28;43493;-73
2022/11/15 01:17:21;;;;;;;2.47;2.47;;;18.10;72.80;;;;;;5052869;28;43384;-74
2022/11/15 01:20:08;;;;;;;2.30;2.30;;;18.00;73.00;;;;;;5055208;28;43348;-73
2022/11/15 01:22:55;;;;;;;2.30;2.30;;;18.00;74.30;;;;;;5048629;28;43345;-75
2022/11/15 01:25:41;;;;;;;2.20;2.20;;;17.90;73.40;;;;;;5053957;28;43501;-73
2022/11/15 01:28:31;;;;;;;2.13;2.13;;;17.90;73.30;;;;;;5056102;28;43419;-75
2022/11/15 01:31:19;;;;;;;2.23;2.23;;;17.90;73.50;;;;;;5056146;28;43369;-74
2022/11/15 01:34:07;;;;;;;2.50;2.50;;;17.90;73.50;;;;;;5053709;28;43548;-72
2022/11/15 01:36:53;;;;;;;2.47;2.40;;;17.80;74.00;;;;;;5055113;28;43497;-74
2022/11/15 01:39:40;;;;;;;2.03;2.03;;;17.80;73.80;;;;;;5055582;28;43335;-73
2022/11/15 01:42:26;;;;;;;2.13;2.13;;;17.90;73.70;;;;;;5052850;28;43408;-72
2022/11/15 01:45:14;;;;;;;2.33;2.33;;;17.80;73.60;;;;;;5052926;28;43364;-77
2022/11/15 01:48:01;;;;;;;2.27;2.27;;;17.80;74.50;;;;;;5054550;28;43609;-74
2022/11/15 01:50:48;;;;;;;2.23;2.23;;;17.80;74.00;;;;;;5051331;28;43961;-74
2022/11/15 01:53:35;;;;;;;2.40;2.40;;;17.80;74.30;;;;;;5054331;28;43415;-74
2022/11/15 01:56:23;;;;;;;2.40;2.40;;;17.90;73.90;;;;;;5052400;28;43349;-73
2022/11/15 01:59:10;;;;;;;2.27;2.27;;;18.10;73.50;;;;;;5049109;28;43492;-73
2022/11/15 02:01:56;;;;;;;2.30;2.30;;;18.20;72.80;;;;;;5046157;28;43413;-73
2022/11/15 02:04:43;;;;;;;2.00;2.00;;;18.30;72.50;;;;;;5042456;28;44061;-73
2022/11/15 02:07:31;;;;;;;2.00;2.00;;;18.30;72.40;;;;;;5041824;28;43415;-74
2022/11/15 02:10:20;;;;;;;1.80;1.80;;;18.20;72.50;;;;;;5043669;28;43625;-73
2022/11/15 02:13:06;;;;;;;2.00;2.00;;;18.10;72.70;;;;;;5047307;28;43431;-75
2022/11/15 02:15:56;;;;;;;2.10;2.10;;;18.10;72.90;;;;;;5044049;28;43536;-74
2022/11/15 02:18:50;;;;;;;2.37;2.37;;;18.00;73.50;;;;;;5043796;28;43527;-76
2022/11/15 02:21:37;;;;;;;2.03;2.03;;;18.00;73.40;;;;;;5045595;28;43481;-75
2022/11/15 02:24:43;;;;;;;2.20;2.20;;;17.90;73.30;;;;;;5038107;28;43365;-75
2022/11/15 02:27:43;;;;;;;1.73;1.73;;;17.90;73.40;;;;;;5045798;28;43447;-77
2022/11/15 02:30:35;;;;;;;1.93;1.93;;;17.90;73.50;;;;;;5045382;28;43400;-77
2022/11/15 02:33:28;;;;;;;2.00;2.00;;;17.90;74.10;;;;;;5046410;28;43897;-74
2022/11/15 02:36:16;;;;;;;2.10;2.10;;;17.90;73.80;;;;;;5041608;28;43489;-74
2022/11/15 02:39:06;;;;;;;2.00;2.00;;;18.00;73.50;;;;;;5045368;28;43373;-75
2022/11/15 02:41:54;;;;;;;2.00;2.00;;;18.00;73.20;;;;;;5040061;28;43385;-75
2022/11/15 02:44:42;;;;;;;2.00;2.00;;;18.00;73.20;;;;;;5043294;28;43938;-76
2022/11/15 02:47:30;;;;;;;2.20;2.20;;;18.00;73.60;;;;;;5043208;28;43451;-76
2022/11/15 02:50:18;;;;;;;2.03;2.03;;;18.00;73.60;;;;;;5039718;28;43405;-76
2022/11/15 02:53:04;;;;;;;1.93;1.93;;;17.90;73.40;;;;;;5043925;28;43396;-76
2022/11/15 02:55:51;;;;;;;1.90;1.90;;;17.90;73.30;;;;;;5041379;28;43722;-73
2022/11/15 02:59:01;;;;;;;1.90;1.90;;;17.90;73.40;;;;;;5044035;28;44045;-74
2022/11/15 03:01:56;;;;;;;1.80;1.80;;;17.90;73.70;;;;;;5041329;28;43353;-73
2022/11/15 03:04:45;;;;;;;1.83;1.83;;;17.90;74.00;;;;;;5044373;28;43392;-74
2022/11/15 03:07:34;;;;;;;1.70;1.70;;;17.90;73.80;;;;;;5043463;28;43501;-73
2022/11/15 03:10:23;;;;;;;1.80;1.80;;;17.90;73.70;;;;;;5043385;28;43487;-77
2022/11/15 03:13:14;;;;;;;2.00;2.00;;;17.80;73.60;;;;;;5043271;28;43343;-73
2022/11/15 03:16:03;;;;;;;2.10;2.10;;;17.80;73.70;;;;;;5043606;28;43402;-73
2022/11/15 03:18:52;;;;;;;1.90;1.90;;;17.80;74.20;;;;;;5038715;28;43484;-75
2022/11/15 03:21:40;;;;;;;2.00;2.00;;;17.90;74.10;;;;;;5043332;28;43500;-73
2022/11/15 03:24:27;;;;;;;1.87;1.87;;;18.10;73.80;;;;;;5037720;28;43962;-74
2022/11/15 03:27:14;;;;;;;1.80;1.80;;;18.10;73.20;;;;;;5044807;28;43495;-75
2022/11/15 03:30:05;;;;;;;1.83;1.83;;;18.10;73.00;;;;;;5042857;28;43581;-73
2022/11/15 03:32:54;;;;;;;2.00;2.00;;;18.10;73.30;;;;;;5040590;28;43823;-73
2022/11/15 03:35:43;;;;;;;1.70;1.70;;;18.10;73.40;;;;;;5045842;28;43454;-75
2022/11/15 03:38:31;;;;;;;1.90;1.90;;;18.10;73.20;;;;;;5040857;28;43887;-75
2022/11/15 03:41:21;;;;;;;1.60;1.60;;;18.00;73.10;;;;;;5045012;28;43613;-75
2022/11/15 03:44:11;;;;;;;2.03;2.03;;;18.00;73.30;;;;;;5040322;28;43999;-77
2022/11/15 03:46:59;;;;;;;1.83;1.83;;;17.90;73.60;;;;;;5042987;28;43933;-75
2022/11/15 03:49:47;;;;;;;1.87;1.87;;;17.90;73.80;;;;;;5043221;28;43404;-75
2022/11/15 03:52:34;;;;;;;1.80;1.77;;;17.90;73.60;;;;;;5043157;28;43865;-72
2022/11/15 03:55:22;;;;;;;1.87;1.87;;;17.90;73.50;;;;;;5041036;28;43462;-74
2022/11/15 03:58:08;;;;;;;1.90;1.90;;;17.90;73.60;;;;;;5042958;28;43293;-72
2022/11/15 04:00:55;;;;;;;1.93;1.93;;;17.90;73.70;;;;;;5039929;28;43449;-72
2022/11/15 04:03:41;;;;;;;1.87;1.87;;;17.80;74.10;;;;;;5041738;28;43519;-76
2022/11/15 04:06:27;;;;;;;1.83;1.83;;;17.90;73.90;;;;;;5044129;28;43571;-74
2022/11/15 04:09:14;;;;;;;1.90;1.90;;;18.10;73.50;;;;;;5041022;28;43475;-74
2022/11/15 04:12:01;;;;;;;1.63;1.63;;;18.10;73.20;;;;;;5049636;28;43468;-74
2022/11/15 04:15:06;;;;;;;1.80;1.80;;;18.10;73.10;;;;;;5042088;28;43549;-74
2022/11/15 04:17:54;;;;;;;1.90;1.90;;;18.00;73.50;;;;;;5040256;28;43365;-73
2022/11/15 04:26:48;;;;;;;1.70;1.70;;;18.00;73.40;;;;;;5047062;28;43489;-76
2022/11/15 04:29:35;;;;;;;1.80;1.80;;;17.90;73.50;;;;;;5045912;28;43377;-76
2022/11/15 04:32:22;;;;;;;1.90;1.90;;;17.90;73.80;;;;;;5045531;28;43353;-77
2022/11/15 04:35:09;;;;;;;1.77;1.77;;;17.90;74.10;;;;;;5042123;28;44263;-74
2022/11/15 04:37:55;;;;;;;1.83;1.83;;;17.90;73.90;;;;;;5046163;28;43483;-74
2022/11/15 04:40:41;;;;;;;1.60;1.60;;;17.80;73.70;;;;;;5046723;28;44120;-75
2022/11/15 04:43:28;;;;;;;1.80;1.80;;;17.80;73.70;;;;;;5040850;28;43332;-74
2022/11/15 04:46:16;;;;;;;1.63;1.63;;;17.80;73.80;;;;;;5048803;28;43437;-76
2022/11/15 04:49:02;;;;;;;1.60;1.60;;;17.80;74.30;;;;;;5045281;28;43689;-74
2022/11/15 04:51:48;;;;;;;1.80;1.80;;;17.90;74.10;;;;;;5044997;28;44017;-74
2022/11/15 04:54:35;;;;;;;1.80;1.80;;;18.10;73.70;;;;;;5045469;28;43530;-74
2022/11/15 04:57:21;;;;;;;1.50;1.50;;;18.20;73.10;;;;;;5045986;28;44073;-74
2022/11/15 05:00:09;;;;;;;1.50;1.50;;;18.30;72.70;;;;;;5047214;28;43642;-76
2022/11/15 05:06:00;;;;;;;1.80;1.80;;;18.30;72.60;;;;;;5043139;28;43342;-73
2022/11/15 05:08:46;;;;;;;1.60;1.60;;;18.10;72.70;;;;;;5043726;28;43965;-75
2022/11/15 05:11:33;;;;;;;1.60;1.60;;;18.10;73.00;;;;;;5045367;28;43567;-74
2022/11/15 05:14:19;;;;;;;1.70;1.70;;;18.00;73.50;;;;;;5046398;28;43426;-76
2022/11/15 05:17:05;;;;;;;1.63;1.63;;;18.00;73.70;;;;;;5047519;28;43476;-73
2022/11/15 05:19:53;;;;;;;1.67;1.67;;;18.00;73.60;;;;;;5042438;28;43397;-74
2022/11/15 05:22:40;;;;;;;1.50;1.50;;;17.90;73.40;;;;;;5044253;28;43602;-73
2022/11/15 05:25:26;;;;;;;1.83;1.83;;;17.90;73.50;;;;;;5040471;28;43393;-75
2022/11/15 05:28:13;;;;;;;1.70;1.70;;;17.90;73.70;;;;;;5047266;28;43424;-75
2022/11/15 05:31:01;;;;;;;1.53;1.53;;;17.80;74.10;;;;;;5040290;28;43468;-74
2022/11/15 05:33:48;;;;;;;1.70;1.70;;;17.80;73.90;;;;;;5044765;28;43602;-76
2022/11/15 05:36:37;;;;;;;1.67;1.67;;;17.90;73.80;;;;;;5044423;28;43480;-75
2022/11/15 05:39:25;;;;;;;1.40;1.40;;;17.80;73.80;;;;;;5042234;28;43461;-74
2022/11/15 05:42:13;;;;;;;1.80;1.80;;;17.80;73.80;;;;;;5043506;28;43477;-72
2022/11/15 05:44:59;;;;;;;1.80;1.80;;;17.80;74.20;;;;;;5044488;28;43910;-74
2022/11/15 05:47:46;;;;;;;1.50;1.50;;;17.80;74.20;;;;;;5043905;28;43410;-75
2022/11/15 05:50:32;;;;;;;1.70;1.70;;;18.00;73.90;;;;;;5043933;28;43424;-73
2022/11/15 05:53:20;;;;;;;1.50;1.50;;;18.20;73.60;;;;;;5039449;28;43453;-75
2022/11/15 05:56:07;;;;;;;1.60;1.60;;;18.30;72.90;;;;;;5044592;28;44085;-76
2022/11/15 05:58:54;;;;;;;1.60;1.60;;;18.30;72.60;;;;;;5043088;28;43379;-75
2022/11/15 06:01:45;;;;;;;1.63;1.63;;;18.30;72.70;;;;;;5043634;28;43501;-73
2022/11/15 06:04:32;;;;;;;1.70;1.70;;;18.20;72.70;;;;;;5044857;28;43445;-74
2022/11/15 06:07:18;;;;;;;1.57;1.57;;;18.10;72.90;;;;;;5046785;28;43750;-72
2022/11/15 06:10:07;;;;;;;1.60;1.60;;;18.00;73.10;;;;;;5044456;28;43417;-75
2022/11/15 06:12:58;;;;;;;1.70;1.70;;;18.00;73.70;;;;;;5044486;28;43454;-75
2022/11/15 06:15:45;;;;;;;1.40;1.40;;;18.00;73.60;;;;;;5044307;28;43407;-74
2022/11/15 06:18:33;;;;;;;1.80;1.80;;;17.90;73.40;;;;;;5046641;28;43485;-76
2022/11/15 06:21:19;;;;;;;1.80;1.80;;;17.90;73.60;;;;;;5042295;28;43461;-73
2022/11/15 06:24:06;;;;;;;1.53;1.53;;;17.90;73.70;;;;;;5044368;28;43476;-75
2022/11/15 06:26:54;;;;;;;1.80;1.80;;;17.90;74.20;;;;;;5038755;28;43535;-73
2022/11/15 06:29:41;;;;;;;1.43;1.43;;;17.90;74.00;;;;;;5043663;28;43680;-76
2022/11/15 06:32:27;;;;;;;1.40;1.40;;;17.90;73.80;;;;;;5042765;28;43898;-75
2022/11/15 06:35:14;;;;;;;1.80;1.80;;;17.90;73.80;;;;;;5038420;28;43446;-73
2022/11/15 06:38:03;;;;;;;1.47;1.47;;;17.80;73.90;;;;;;5044373;28;43417;-74
2022/11/15 06:40:50;;;;;;;1.60;1.60;;;17.80;74.30;;;;;;5043475;28;43567;-75
2022/11/15 06:43:38;;;;;;;1.43;1.43;;;17.90;74.30;;;;;;5043277;28;43309;-75
2022/11/15 06:46:25;;;;;;;1.60;1.60;;;18.00;73.90;;;;;;5043316;28;43425;-75
2022/11/15 06:49:11;;;;;;;1.40;1.40;;;18.20;73.30;;;;;;5038736;28;43516;-75
2022/11/15 06:51:57;;;;;;;1.60;1.60;;;18.30;72.80;;;;;;5044629;28;43946;-73
2022/11/15 06:54:44;;;;;;;1.50;1.50;;;18.30;72.60;;;;;;5042327;28;43425;-74
2022/11/15 06:57:32;;;;;;;1.60;1.60;;;18.30;72.60;;;;;;5046950;28;43950;-73
2022/11/15 07:00:20;;;;;;;1.73;1.73;;;18.20;72.70;;;;;;5042759;28;43385;-74
2022/11/15 07:03:07;;;;;;;1.50;1.50;;;18.10;73.00;;;;;;5042839;28;43495;-74
2022/11/15 07:05:54;;;;;;;1.67;1.67;;;18.00;73.40;;;;;;5044211;28;43417;-73
2022/11/15 07:08:41;;;;;;;1.53;1.53;;;18.00;73.80;;;;;;5043159;28;43435;-75
2022/11/15 07:11:27;;;;;;;1.60;1.60;;;18.00;73.60;;;;;;5046422;28;43444;-74
2022/11/15 07:14:14;;;;;;;1.60;1.60;;;17.90;73.50;;;;;;5045472;28;43943;-73
2022/11/15 07:17:03;;;;;;;1.60;1.60;;;17.90;73.60;;;;;;5042212;28;43408;-73
2022/11/15 07:19:50;;;;;;;1.70;1.70;;;17.90;73.80;;;;;;5042480;28;43368;-73
2022/11/15 07:22:36;;;;;;;1.47;1.47;;;17.90;74.30;;;;;;5045032;28;43359;-74
2022/11/15 07:25:23;;;;;;;1.63;1.63;;;17.90;74.10;;;;;;5043249;28;43524;-73
2022/11/15 07:28:09;;;;;;;1.50;1.50;;;17.90;74.00;;;;;;5045427;28;43898;-75
2022/11/15 07:30:56;;;;;;;1.70;1.70;;;17.90;74.00;;;;;;5044342;28;43403;-73
2022/11/15 07:33:45;;;;;;;1.60;1.60;;;17.80;73.90;;;;;;5043498;28;43315;-75
2022/11/15 07:36:31;;;;;;;1.70;1.70;;;17.80;74.40;;;;;;5043122;28;43532;-75
2022/11/15 07:39:18;;;;;;;1.90;1.90;;;17.90;74.20;;;;;;5040275;28;43440;-73
2022/11/15 07:45:11;;;;;;;1.70;1.70;;;18.20;73.20;;;;;;5041366;28;43520;-74
2022/11/15 07:47:57;;;;;;;1.50;1.50;;;18.30;72.80;;;;;;5046686;28;43606;-76
2022/11/15 07:50:45;;;;;;;1.60;1.60;;;18.30;72.60;;;;;;5046038;28;43466;-74
2022/11/15 07:53:32;;;;;;;1.63;1.63;;;18.30;72.70;;;;;;5046530;28;43452;-75
2022/11/15 07:56:20;;;;;;;1.73;1.70;;;18.20;72.90;;;;;;5049188;28;43894;-77
2022/11/15 07:59:06;;;;;;;1.50;1.50;;;18.10;73.10;;;;;;5041715;28;43645;-75
2022/11/15 08:01:53;;;;;;;1.57;1.57;;;18.10;73.60;;;;;;5046364;28;43428;-75
2022/11/15 08:04:40;;;;;;;1.50;1.50;;;18.00;73.70;;;;;;5046484;28;43440;-76
2022/11/15 08:07:29;;;;;;;1.40;1.40;;;18.00;73.60;;;;;;5043561;28;43397;-76
2022/11/15 08:10:18;;;;;;;1.30;1.30;;;18.00;73.50;;;;;;5047431;28;43768;-72
2022/11/15 08:13:06;;;;;;;1.50;1.50;;;18.00;73.60;;;;;;5043758;28;43452;-75
2022/11/15 08:15:53;;;;;;;1.63;1.63;;;17.90;73.60;;;;;;5044312;28;43911;-75
2022/11/15 08:18:43;;;;;;;1.60;1.60;;;17.90;74.10;;;;;;5041990;28;43442;-77
2022/11/15 08:21:29;;;;;;;1.33;1.33;;;18.00;74.00;;;;;;5042686;28;43494;-74
2022/11/15 08:24:17;;;;;;;1.60;1.60;;;18.10;73.50;;;;;;5045613;28;43367;-74
2022/11/15 08:27:04;;;;;;;1.60;1.60;;;18.20;73.40;;;;;;5046914;28;43865;-73
2022/11/15 08:29:50;;;;;;;1.60;1.60;;;18.10;73.20;;;;;;5049276;28;43389;-74
2022/11/15 08:32:42;;;;;;;1.40;1.40;;;18.10;73.70;;;;;;5045749;28;43618;-74
2022/11/15 08:35:28;;;;;;;1.50;1.50;;;18.10;73.60;;;;;;5045780;28;43459;-73
2022/11/15 08:38:14;;;;;;;1.57;1.57;;;18.10;73.40;;;;;;5046207;28;43428;-75
2022/11/15 08:41:03;;;;;;;1.80;1.80;;;18.00;73.40;;;;;;5046248;28;43430;-75
2022/11/15 08:43:50;;;;;;;1.30;1.30;;;18.00;73.60;;;;;;5045838;28;43483;-76
2022/11/15 08:46:37;;;;;;;1.60;1.60;;;17.90;73.70;;;;;;5040588;28;43415;-74
2022/11/15 08:49:23;;;;;;;1.60;1.60;;;17.90;74.10;;;;;;5045263;28;43392;-75
2022/11/15 08:52:09;;;;;;;1.60;1.60;;;18.10;74.00;;;;;;5046059;28;43309;-74
2022/11/15 08:54:56;;;;;;;1.60;1.60;;;18.10;73.50;;;;;;5042529;28;43746;-73
2022/11/15 08:57:43;;;;;;;1.40;1.40;;;18.10;73.30;;;;;;5045167;28;43474;-73
2022/11/15 09:00:30;;;;;;;1.43;1.43;;;18.10;73.40;;;;;;5045303;28;43408;-75
2022/11/15 09:03:17;;;;;;;1.50;1.50;;;18.00;73.40;;;;;;5045819;28;43376;-75
2022/11/15 09:06:03;;;;;;;1.70;1.70;;;18.00;73.60;;;;;;5046835;28;43508;-76
2022/11/15 09:08:49;;;;;;;1.67;1.67;;;18.00;73.80;;;;;;5044942;28;43415;-73
2022/11/15 09:11:35;;;;;;;1.60;1.60;;;17.90;73.80;;;;;;5048300;28;43384;-75
2022/11/15 09:14:23;;;;;;;1.60;1.60;;;17.90;73.90;;;;;;5045581;28;43383;-72
2022/11/15 09:17:10;;;;;;;4.90;1.90;;;17.90;73.90;;;;;;5038503;28;43529;-75
2022/11/15 09:19:56;;;;;;;5.97;1.87;;;17.90;74.00;;;;;;5045118;28;44084;-75
2022/11/15 09:22:43;;;;;;;2.50;1.87;;;17.90;74.60;;;;;;5045363;28;43345;-75
2022/11/15 09:25:30;;;;;;;2.13;1.97;;;18.10;73.80;;;;;;5041654;28;43449;-73
2022/11/15 09:28:16;;;;;;;2.57;1.67;;;18.30;73.20;;;;;;5045697;28;43827;-76
2022/11/15 09:31:05;;;;;;;1.93;1.60;;;18.50;72.50;;;;;;5042359;28;43441;-74
2022/11/15 09:33:52;;;;;;;1.70;1.70;;;18.70;71.60;;;;;;5046524;28;43427;-76
2022/11/15 09:36:39;;;;;;;1.77;1.67;;;18.90;70.80;;;;;;5047958;28;43415;-75
2022/11/15 09:39:26;;;;;;;4.10;1.60;;;19.20;70.20;;;;;;5046742;28;43561;-76
2022/11/15 09:42:26;;;;;;;1.87;1.87;;;19.30;69.70;;;;;;5043002;28;43412;-76
2022/11/15 09:45:17;;;;;;;1.77;1.77;;;19.40;69.50;;;;;;5043828;28;43564;-73
2022/11/15 09:48:26;;;;;;;1.90;1.80;;;19.40;69.10;;;;;;5043618;28;43454;-74
2022/11/15 09:51:26;;;;;;;2.67;1.80;;;19.40;69.10;;;;;;5032934;28;43793;-76
2022/11/15 09:53:59;;;;;;;2.87;1.70;;;19.30;69.50;;;;;;5047472;28;43462;-77
2022/11/15 09:56:46;;;;;;;1.83;1.77;;;19.10;69.90;;;;;;5045319;28;43495;-75
2022/11/15 09:59:33;;;;;;;1.80;1.80;;;19.00;70.70;;;;;;5047929;28;43423;-75
2022/11/15 10:02:04;;;;;;;1.60;1.60;;;18.80;71.10;;;;;;5047151;28;43911;-74
2022/11/15 10:04:34;;;;;;;1.67;1.67;;;18.70;71.20;;;;;;5047804;28;44021;-75
2022/11/15 10:07:03;;;;;;;1.40;1.40;;;18.70;71.50;;;;;;5046737;28;43403;-76
2022/11/15 10:09:34;;;;;;;1.73;1.63;;;18.60;71.70;;;;;;5047321;28;43560;-75
2022/11/15 10:12:02;;;;;;;1.53;1.53;;;18.40;71.90;;;;;;5042767;28;43975;-74
2022/11/15 10:14:31;;;;;;;1.63;1.63;;;18.40;72.70;;;;;;5044386;28;43709;-76
2022/11/15 10:17:27;;;;;;;1.60;1.60;;;18.40;72.90;;;;;;5044656;28;43915;-75
2022/11/15 10:20:04;;;;;;;1.63;1.63;;;18.30;72.70;;;;;;5044857;28;44076;-77
2022/11/15 10:22:37;;;;;;;1.60;1.60;;;18.30;72.80;;;;;;5028465;28;45507;-74
2022/11/15 10:25:15;;;;;;;1.53;1.53;;;18.20;72.80;;;;;;5050357;28;44372;-74
2022/11/15 10:27:44;;;;;;;1.80;1.67;;;18.20;73.00;;;;;;5040928;28;43404;-76
2022/11/15 10:30:14;;;;;;;1.70;1.70;;;18.20;73.90;;;;;;5029116;28;43447;-74
2022/11/15 10:32:42;;;;;;;1.40;1.40;;;18.30;73.80;;;;;;5046740;28;43833;-75
2022/11/15 10:35:23;;;;;;;1.60;1.60;;;18.40;73.40;;;;;;5047072;28;43441;-77
2022/11/15 10:37:51;;;;;;;1.60;1.60;;;18.50;73.00;;;;;;5047116;28;43444;-74
2022/11/15 10:40:21;;;;;;;1.60;1.50;;;18.60;72.50;;;;;;5047410;28;43367;-75
2022/11/15 10:42:49;;;;;;;1.70;1.70;;;18.70;72.30;;;;;;5046536;28;43599;-75
2022/11/15 10:45:28;;;;;;;1.60;1.60;;;18.60;72.20;;;;;;5042908;28;43455;-76
2022/11/15 10:48:19;;;;;;;1.33;1.33;;;18.60;72.30;;;;;;5046924;28;43423;-74
2022/11/15 10:50:49;;;;;;;1.40;1.40;;;18.50;72.40;;;;;;5046856;28;43911;-75
2022/11/15 10:53:20;;;;;;;1.47;1.47;;;18.40;72.90;;;;;;5028249;28;45986;-75
2022/11/15 10:55:49;;;;;;;1.80;1.80;;;18.30;73.30;;;;;;5028644;28;44699;-75
2022/11/15 10:58:22;;;;;;;1.43;1.43;;;18.30;73.30;;;;;;5041908;28;43389;-75
2022/11/15 11:00:51;;;;;;;1.60;1.50;;;18.30;73.30;;;;;;5050920;28;43898;-75
2022/11/15 11:03:30;;;;;;;1.60;1.60;;;18.20;73.30;;;;;;5027605;28;43910;-76
2022/11/15 11:06:07;;;;;;;1.67;1.67;;;18.20;73.50;;;;;;5046652;28;43436;-74
2022/11/15 11:08:35;;;;;;;1.50;1.50;;;18.20;74.90;;;;;;5046890;28;43409;-77
2022/11/15 11:11:03;;;;;;;1.60;1.60;;;18.20;74.00;;;;;;5046954;28;43500;-76
2022/11/15 11:13:34;;;;;;;1.70;1.70;;;18.30;73.80;;;;;;5046514;28;43646;-73
2022/11/15 11:16:20;;;;;;;1.30;1.30;;;18.40;73.60;;;;;;5028063;28;44227;-74
2022/11/15 11:18:52;;;;;;;1.50;1.50;;;18.30;73.30;;;;;;5040746;28;43481;-73
2022/11/15 11:21:25;;;;;;;1.40;1.40;;;18.30;73.70;;;;;;5046729;28;43525;-76
2022/11/15 11:24:04;;;;;;;1.40;1.40;;;18.30;73.80;;;;;;5027867;28;45345;-76
2022/11/15 11:26:41;;;;;;;1.50;1.50;;;18.30;73.70;;;;;;5046048;28;43384;-75
2022/11/15 11:29:20;;;;;;;1.37;1.37;;;18.30;73.50;;;;;;5028212;28;43472;-75
2022/11/15 11:31:50;;;;;;;1.40;1.40;;;18.20;73.50;;;;;;5028821;28;43475;-76
2022/11/15 11:34:26;;;;;;;1.47;1.47;;;18.20;73.60;;;;;;5040166;28;43972;-75
2022/11/15 11:36:59;;;;;;;1.50;1.50;;;18.20;74.40;;;;;;5046156;28;43617;-76
2022/11/15 11:39:31;;;;;;;1.40;1.40;;;18.20;74.10;;;;;;5046078;28;43392;-74
2022/11/15 11:42:03;;;;;;;1.53;1.53;;;18.20;74.00;;;;;;5043039;28;43407;-75
2022/11/15 11:44:38;;;;;;;1.40;1.40;;;18.10;73.90;;;;;;5046247;28;43911;-75
2022/11/15 11:47:10;;;;;;;1.43;1.43;;;18.10;74.00;;;;;;5025823;28;44545;-74
2022/11/15 11:49:41;;;;;;;1.33;1.33;;;18.10;74.50;;;;;;5044279;28;43528;-75
2022/11/15 11:52:13;;;;;;;1.40;1.40;;;18.10;74.70;;;;;;5029476;28;43575;-76
2022/11/15 11:54:47;;;;;;;1.30;1.30;;;18.10;74.30;;;;;;5042662;28;43916;-77
2022/11/15 11:57:18;;;;;;;1.37;1.30;;;18.30;73.90;;;;;;5045926;28;44534;-76
2022/11/15 11:59:49;;;;;;;1.30;1.30;;;18.40;73.40;;;;;;5027464;28;43496;-75
2022/11/15 12:02:19;;;;;;;1.50;1.50;;;18.50;73.10;;;;;;5040488;28;43446;-75
2022/11/15 12:04:50;;;;;;;1.13;1.13;;;18.50;73.00;;;;;;5045536;28;43866;-77
2022/11/15 12:07:22;;;;;;;1.33;1.33;;;18.40;72.90;;;;;;5045167;28;43521;-76
2022/11/15 12:09:54;;;;;;;1.30;1.30;;;18.40;73.10;;;;;;5045647;28;43448;-75
2022/11/15 12:12:26;;;;;;;1.40;1.40;;;18.30;73.20;;;;;;5046349;28;43441;-75
2022/11/15 12:14:55;;;;;;;1.30;1.30;;;18.30;73.70;;;;;;5045423;28;43844;-75
2022/11/15 12:17:25;;;;;;;1.20;1.20;;;18.20;74.10;;;;;;5045938;28;43753;-75
2022/11/15 12:19:53;;;;;;;1.40;1.40;;;18.20;73.90;;;;;;5042598;28;43538;-76
2022/11/15 12:22:24;;;;;;;1.17;1.17;;;18.10;73.80;;;;;;5042728;28;43652;-76
2022/11/15 12:24:55;;;;;;;1.30;1.30;;;18.10;73.80;;;;;;5045648;28;43944;-74
2022/11/15 12:27:32;;;;;;;1.40;1.30;;;18.10;73.90;;;;;;5045317;28;43454;-73
2022/11/15 12:30:02;;;;;;;1.30;1.30;;;18.10;74.40;;;;;;5028089;28;43528;-75
2022/11/15 12:32:32;;;;;;;1.13;1.13;;;18.10;74.50;;;;;;5049281;28;43468;-77
2022/11/15 12:35:01;;;;;;;1.10;1.10;;;18.10;74.20;;;;;;5048433;28;44563;-75
2022/11/15 12:37:48;;;;;;;1.20;1.20;;;18.10;74.10;;;;;;5048900;28;43419;-75
2022/11/15 12:40:27;;;;;;;1.30;1.30;;;18.10;74.10;;;;;;5026142;28;43467;-76
2022/11/15 12:43:01;;;;;;;1.30;1.30;;;18.00;74.20;;;;;;5049078;28;43430;-73
2022/11/15 12:45:29;;;;;;;1.73;1.50;;;18.00;74.80;;;;;;5048887;28;43783;-77
2022/11/15 12:48:22;;;;;;;1.67;1.57;;;18.10;74.20;;;;;;5032850;28;44261;-74
2022/11/15 12:50:54;;;;;;;1.53;1.43;;;18.20;73.70;;;;;;5045080;28;43468;-77
2022/11/15 12:53:30;;;;;;;1.30;1.30;;;18.30;73.30;;;;;;5032791;28;43420;-73
2022/11/15 12:56:27;;;;;;;1.47;1.47;;;18.50;73.10;;;;;;5031149;28;45265;-75
2022/11/15 12:58:56;;;;;;;1.57;1.47;;;18.50;72.90;;;;;;5029999;28;44267;-76
2022/11/15 13:02:00;;;;;;;1.73;1.33;;;18.40;72.90;;;;;;5042160;28;43906;-77
2022/11/15 13:04:30;;;;;;;1.40;1.40;;;18.40;73.00;;;;;;5045186;28;43522;-75
2022/11/15 13:06:59;;;;;;;1.57;1.47;;;18.30;73.30;;;;;;5029692;28;47092;-75
2022/11/15 13:09:54;;;;;;;1.60;1.60;;;18.20;73.60;;;;;;5029419;28;43667;-76
2022/11/15 13:12:50;;;;;;;1.90;1.80;;;18.20;74.10;;;;;;5046415;28;43874;-76
2022/11/15 13:15:38;;;;;;;1.50;1.50;;;18.20;73.90;;;;;;5044526;28;43547;-74
2022/11/15 13:18:35;;;;;;;1.90;1.80;;;18.10;73.80;;;;;;5043780;28;43870;-74
2022/11/15 13:22:50;;;;;;;1.77;1.73;;;18.10;73.90;;;;;;5029843;28;45039;-75
2022/11/15 13:23:55;;;;;;;2.13;2.00;;;18.10;74.10;;;;;;5047978;28;43909;-76
2022/11/15 13:26:24;;;;;;;2.30;2.10;;;18.10;74.60;;;;;;5028270;28;43776;-75
2022/11/15 13:28:54;;;;;;;1.80;1.80;;;18.10;74.40;;;;;;5047606;28;44050;-75
2022/11/15 13:31:27;;;;;;;1.77;1.67;;;18.10;74.20;;;;;;5031782;28;45073;-74
2022/11/15 13:33:59;;;;;;;1.83;1.73;;;18.00;74.10;;;;;;5030184;28;43437;-75
2022/11/15 13:36:29;;;;;;;2.50;2.10;;;18.00;74.20;;;;;;5035065;28;44012;-74
2022/11/15 13:38:59;;;;;;;2.30;2.20;;;18.00;74.60;;;;;;5047209;28;43912;-74
2022/11/15 13:41:28;;;;;;;2.10;1.97;;;18.00;74.80;;;;;;5046823;28;43935;-75
2022/11/15 13:43:57;;;;;;;2.43;2.10;;;18.10;74.50;;;;;;5035202;28;43445;-75
2022/11/15 13:46:25;;;;;;;2.80;2.20;;;18.20;74.00;;;;;;5032940;28;43544;-75
2022/11/15 13:48:55;;;;;;;2.13;2.03;;;18.40;73.60;;;;;;5046039;28;44069;-74
2022/11/15 13:51:29;;;;;;;2.37;2.00;;;18.50;73.20;;;;;;5027501;28;46004;-76
2022/11/15 13:53:59;;;;;;;2.23;2.13;;;18.50;73.00;;;;;;5044958;28;43499;-74
2022/11/15 13:56:28;;;;;;;1.97;1.87;;;18.40;72.90;;;;;;5041830;28;43407;-77
2022/11/15 13:58:56;;;;;;;1.47;1.47;;;18.40;73.20;;;;;;5047163;28;43600;-73
2022/11/15 14:01:24;;;;;;;2.20;2.10;;;18.30;73.30;;;;;;5042550;28;43524;-75
2022/11/15 14:03:55;;;;;;;2.20;2.10;;;18.20;73.50;;;;;;5046471;28;43447;-75
2022/11/15 14:06:24;;;;;;;2.50;2.30;;;18.20;74.10;;;;;;5029264;28;44097;-74
2022/11/15 14:09:36;;;;;;;1.90;1.80;;;18.20;74.10;;;;;;5047360;28;43911;-74
2022/11/15 14:12:37;;;;;;;2.50;2.00;;;18.10;73.90;;;;;;5010567;28;43821;-74
2022/11/15 14:15:25;;;;;;;2.13;2.00;;;18.10;73.90;;;;;;5027330;28;43483;-77
2022/11/15 14:17:53;;;;;;;2.37;2.27;;;18.10;74.10;;;;;;5023648;28;43499;-75
2022/11/15 14:20:32;;;;;;;2.93;1.80;;;18.00;74.60;;;;;;5046710;28;43838;-76
2022/11/15 14:23:01;;;;;;;2.30;2.20;;;18.00;74.40;;;;;;5028750;28;44443;-75
2022/11/15 14:25:29;;;;;;;2.00;1.90;;;18.00;74.30;;;;;;5047458;28;43388;-75